sensor_id;sensor_type;location;lat;lon;timestamp;P1;durP1;ratioP1;P2;durP2;ratioP2
56893;SDS011;43392;50.078;13.704;2022-08-23T00:01:29;10.15;;;6.15;;
56893;SDS011;43392;50.078;13.704;2022-08-23T00:04:00;9.48;;;6.03;;
56893;SDS011;43392;50.078;13.704;2022-08-23T00:06:29;9.57;;;5.97;;
56893;SDS011;43392;50.078;13.704;2022-08-23T00:08:56;10.95;;;6.50;;
56893;SDS011;43392;50.078;13.704;2022-08-23T00:11:24;11.65;;;6.55;;
56893;SDS011;43392;50.078;13.704;2022-08-23T00:13:53;10.73;;;6.50;;
56893;SDS011;43392;50.078;13.704;2022-08-23T00:16:20;11.63;;;6.32;;
56893;SDS011;43392;50.078;13.704;2022-08-23T00:18:47;12.95;;;6.32;;
56893;SDS011;43392;50.078;13.704;2022-08-23T00:21:15;11.13;;;6.68;;
56893;SDS011;43392;50.078;13.704;2022-08-23T00:23:42;11.90;;;6.63;;
56893;SDS011;43392;50.078;13.704;2022-08-23T00:26:09;10.38;;;6.93;;
56893;SDS011;43392;50.078;13.704;2022-08-23T00:28:36;9.40;;;5.95;;
56893;SDS011;43392;50.078;13.704;2022-08-23T00:31:03;10.32;;;6.03;;
56893;SDS011;43392;50.078;13.704;2022-08-23T00:33:29;11.50;;;6.82;;
56893;SDS011;43392;50.078;13.704;2022-08-23T00:35:56;11.50;;;5.93;;
56893;SDS011;43392;50.078;13.704;2022-08-23T00:38:24;11.07;;;6.22;;
56893;SDS011;43392;50.078;13.704;2022-08-23T00:40:51;13.15;;;6.60;;
56893;SDS011;43392;50.078;13.704;2022-08-23T00:43:21;10.35;;;6.57;;
56893;SDS011;43392;50.078;13.704;2022-08-23T00:46:11;11.07;;;6.32;;
56893;SDS011;43392;50.078;13.704;2022-08-23T00:51:29;10.77;;;6.03;;
56893;SDS011;43392;50.078;13.704;2022-08-23T00:54:01;11.70;;;6.03;;
56893;SDS011;43392;50.078;13.704;2022-08-23T00:56:30;10.70;;;6.40;;
56893;SDS011;43392;50.078;13.704;2022-08-23T00:58:59;9.93;;;6.30;;
56893;SDS011;43392;50.078;13.704;2022-08-23T01:01:25;9.95;;;5.85;;
56893;SDS011;43392;50.078;13.704;2022-08-23T01:03:53;12.95;;;5.75;;
56893;SDS011;43392;50.078;13.704;2022-08-23T01:06:23;11.77;;;6.00;;
56893;SDS011;43392;50.078;13.704;2022-08-23T01:08:54;13.13;;;5.70;;
56893;SDS011;43392;50.078;13.704;2022-08-23T01:11:26;12.30;;;5.85;;
56893;SDS011;43392;50.078;13.704;2022-08-23T01:13:58;12.38;;;6.03;;
56893;SDS011;43392;50.078;13.704;2022-08-23T01:16:29;10.50;;;5.88;;
56893;SDS011;43392;50.078;13.704;2022-08-23T01:19:02;10.95;;;6.22;;
56893;SDS011;43392;50.078;13.704;2022-08-23T01:21:34;9.77;;;5.80;;
56893;SDS011;43392;50.078;13.704;2022-08-23T01:24:07;9.40;;;5.78;;
56893;SDS011;43392;50.078;13.704;2022-08-23T01:26:35;8.63;;;5.32;;
56893;SDS011;43392;50.078;13.704;2022-08-23T01:29:03;8.68;;;5.43;;
56893;SDS011;43392;50.078;13.704;2022-08-23T01:31:32;9.55;;;5.38;;
56893;SDS011;43392;50.078;13.704;2022-08-23T01:34:00;9.25;;;5.20;;
56893;SDS011;43392;50.078;13.704;2022-08-23T01:36:29;8.50;;;4.82;;
56893;SDS011;43392;50.078;13.704;2022-08-23T01:38:56;9.02;;;5.57;;
56893;SDS011;43392;50.078;13.704;2022-08-23T01:41:24;10.73;;;5.40;;
56893;SDS011;43392;50.078;13.704;2022-08-23T01:43:51;8.75;;;5.43;;
56893;SDS011;43392;50.078;13.704;2022-08-23T01:46:18;9.13;;;5.40;;
56893;SDS011;43392;50.078;13.704;2022-08-23T01:48:47;9.45;;;5.32;;
56893;SDS011;43392;50.078;13.704;2022-08-23T01:51:16;10.70;;;6.13;;
56893;SDS011;43392;50.078;13.704;2022-08-23T01:53:45;9.63;;;6.13;;
56893;SDS011;43392;50.078;13.704;2022-08-23T01:56:12;9.57;;;5.55;;
56893;SDS011;43392;50.078;13.704;2022-08-23T01:58:40;8.95;;;5.90;;
56893;SDS011;43392;50.078;13.704;2022-08-23T02:01:07;11.85;;;6.60;;
56893;SDS011;43392;50.078;13.704;2022-08-23T02:03:33;11.13;;;6.28;;
56893;SDS011;43392;50.078;13.704;2022-08-23T02:06:02;9.13;;;6.40;;
56893;SDS011;43392;50.078;13.704;2022-08-23T02:08:29;15.02;;;7.03;;
56893;SDS011;43392;50.078;13.704;2022-08-23T02:11:14;11.13;;;6.40;;
56893;SDS011;43392;50.078;13.704;2022-08-23T02:13:44;12.63;;;7.32;;
56893;SDS011;43392;50.078;13.704;2022-08-23T02:16:11;13.73;;;7.85;;
56893;SDS011;43392;50.078;13.704;2022-08-23T02:18:39;11.10;;;7.80;;
56893;SDS011;43392;50.078;13.704;2022-08-23T02:21:05;13.65;;;8.40;;
56893;SDS011;43392;50.078;13.704;2022-08-23T02:23:32;12.50;;;8.23;;
56893;SDS011;43392;50.078;13.704;2022-08-23T02:25:58;13.57;;;8.63;;
56893;SDS011;43392;50.078;13.704;2022-08-23T02:28:25;12.57;;;8.18;;
56893;SDS011;43392;50.078;13.704;2022-08-23T02:30:53;12.57;;;7.60;;
56893;SDS011;43392;50.078;13.704;2022-08-23T02:33:20;13.15;;;7.95;;
56893;SDS011;43392;50.078;13.704;2022-08-23T02:35:46;12.63;;;7.57;;
56893;SDS011;43392;50.078;13.704;2022-08-23T02:38:13;11.27;;;7.70;;
56893;SDS011;43392;50.078;13.704;2022-08-23T02:40:42;12.57;;;7.90;;
56893;SDS011;43392;50.078;13.704;2022-08-23T02:43:09;10.20;;;7.03;;
56893;SDS011;43392;50.078;13.704;2022-08-23T02:45:36;13.82;;;8.02;;
56893;SDS011;43392;50.078;13.704;2022-08-23T02:48:04;9.50;;;6.80;;
56893;SDS011;43392;50.078;13.704;2022-08-23T02:50:32;11.43;;;6.70;;
56893;SDS011;43392;50.078;13.704;2022-08-23T02:52:58;12.77;;;7.90;;
56893;SDS011;43392;50.078;13.704;2022-08-23T02:55:25;11.13;;;7.47;;
56893;SDS011;43392;50.078;13.704;2022-08-23T02:57:53;11.35;;;7.72;;
56893;SDS011;43392;50.078;13.704;2022-08-23T03:00:19;10.95;;;7.63;;
56893;SDS011;43392;50.078;13.704;2022-08-23T03:02:46;12.63;;;8.02;;
56893;SDS011;43392;50.078;13.704;2022-08-23T03:05:14;12.25;;;7.25;;
56893;SDS011;43392;50.078;13.704;2022-08-23T03:07:41;11.57;;;8.20;;
56893;SDS011;43392;50.078;13.704;2022-08-23T03:10:09;12.23;;;8.23;;
56893;SDS011;43392;50.078;13.704;2022-08-23T03:12:36;12.25;;;7.60;;
56893;SDS011;43392;50.078;13.704;2022-08-23T03:15:03;13.90;;;8.15;;
56893;SDS011;43392;50.078;13.704;2022-08-23T03:17:31;12.93;;;8.90;;
56893;SDS011;43392;50.078;13.704;2022-08-23T03:19:57;13.32;;;8.48;;
56893;SDS011;43392;50.078;13.704;2022-08-23T03:22:25;13.13;;;8.70;;
56893;SDS011;43392;50.078;13.704;2022-08-23T03:24:52;13.30;;;9.32;;
56893;SDS011;43392;50.078;13.704;2022-08-23T03:27:18;13.82;;;8.75;;
56893;SDS011;43392;50.078;13.704;2022-08-23T03:29:45;13.90;;;9.85;;
56893;SDS011;43392;50.078;13.704;2022-08-23T03:32:11;13.60;;;9.18;;
56893;SDS011;43392;50.078;13.704;2022-08-23T03:34:38;14.57;;;9.13;;
56893;SDS011;43392;50.078;13.704;2022-08-23T03:37:05;15.15;;;9.90;;
56893;SDS011;43392;50.078;13.704;2022-08-23T03:39:33;14.68;;;9.38;;
56893;SDS011;43392;50.078;13.704;2022-08-23T03:42:00;13.13;;;9.10;;
56893;SDS011;43392;50.078;13.704;2022-08-23T03:44:26;14.38;;;9.73;;
56893;SDS011;43392;50.078;13.704;2022-08-23T03:46:53;14.35;;;8.88;;
56893;SDS011;43392;50.078;13.704;2022-08-23T03:49:20;14.20;;;9.07;;
56893;SDS011;43392;50.078;13.704;2022-08-23T03:51:46;14.35;;;8.63;;
56893;SDS011;43392;50.078;13.704;2022-08-23T03:54:13;12.77;;;9.02;;
56893;SDS011;43392;50.078;13.704;2022-08-23T03:56:49;14.15;;;8.40;;
56893;SDS011;43392;50.078;13.704;2022-08-23T03:59:17;11.93;;;7.15;;
56893;SDS011;43392;50.078;13.704;2022-08-23T04:01:44;11.30;;;7.43;;
56893;SDS011;43392;50.078;13.704;2022-08-23T04:04:11;11.73;;;7.47;;
56893;SDS011;43392;50.078;13.704;2022-08-23T04:06:38;11.57;;;7.20;;
56893;SDS011;43392;50.078;13.704;2022-08-23T04:09:05;11.32;;;7.25;;
56893;SDS011;43392;50.078;13.704;2022-08-23T04:11:31;12.30;;;7.30;;
56893;SDS011;43392;50.078;13.704;2022-08-23T04:13:59;11.40;;;6.45;;
56893;SDS011;43392;50.078;13.704;2022-08-23T04:16:26;12.73;;;7.43;;
56893;SDS011;43392;50.078;13.704;2022-08-23T04:18:54;10.30;;;6.97;;
56893;SDS011;43392;50.078;13.704;2022-08-23T04:21:21;13.70;;;7.50;;
56893;SDS011;43392;50.078;13.704;2022-08-23T04:23:49;15.57;;;8.38;;
56893;SDS011;43392;50.078;13.704;2022-08-23T04:26:16;11.65;;;7.38;;
56893;SDS011;43392;50.078;13.704;2022-08-23T04:28:43;11.55;;;6.65;;
56893;SDS011;43392;50.078;13.704;2022-08-23T04:31:11;9.38;;;6.00;;
56893;SDS011;43392;50.078;13.704;2022-08-23T04:33:39;10.38;;;6.40;;
56893;SDS011;43392;50.078;13.704;2022-08-23T04:36:05;11.02;;;5.78;;
56893;SDS011;43392;50.078;13.704;2022-08-23T04:38:32;10.52;;;6.00;;
56893;SDS011;43392;50.078;13.704;2022-08-23T04:40:59;9.40;;;6.00;;
56893;SDS011;43392;50.078;13.704;2022-08-23T04:43:43;13.40;;;5.90;;
56893;SDS011;43392;50.078;13.704;2022-08-23T04:46:10;10.95;;;5.85;;
56893;SDS011;43392;50.078;13.704;2022-08-23T04:48:39;11.30;;;6.30;;
56893;SDS011;43392;50.078;13.704;2022-08-23T04:51:07;10.20;;;6.00;;
56893;SDS011;43392;50.078;13.704;2022-08-23T04:53:33;10.85;;;5.97;;
56893;SDS011;43392;50.078;13.704;2022-08-23T04:56:00;9.25;;;5.75;;
56893;SDS011;43392;50.078;13.704;2022-08-23T04:58:28;10.60;;;6.35;;
56893;SDS011;43392;50.078;13.704;2022-08-23T05:00:56;13.60;;;6.65;;
56893;SDS011;43392;50.078;13.704;2022-08-23T05:03:25;9.15;;;6.22;;
56893;SDS011;43392;50.078;13.704;2022-08-23T05:05:53;12.75;;;6.60;;
56893;SDS011;43392;50.078;13.704;2022-08-23T05:08:22;12.65;;;6.80;;
56893;SDS011;43392;50.078;13.704;2022-08-23T05:10:48;9.93;;;6.55;;
56893;SDS011;43392;50.078;13.704;2022-08-23T05:13:15;10.43;;;7.18;;
56893;SDS011;43392;50.078;13.704;2022-08-23T05:15:42;12.90;;;6.70;;
56893;SDS011;43392;50.078;13.704;2022-08-23T05:18:09;9.50;;;6.57;;
56893;SDS011;43392;50.078;13.704;2022-08-23T05:20:37;12.80;;;7.88;;
56893;SDS011;43392;50.078;13.704;2022-08-23T05:23:04;13.27;;;8.40;;
56893;SDS011;43392;50.078;13.704;2022-08-23T05:25:30;11.35;;;8.20;;
56893;SDS011;43392;50.078;13.704;2022-08-23T05:28:11;11.38;;;7.63;;
56893;SDS011;43392;50.078;13.704;2022-08-23T05:30:37;12.00;;;7.90;;
56893;SDS011;43392;50.078;13.704;2022-08-23T05:33:04;12.25;;;8.05;;
56893;SDS011;43392;50.078;13.704;2022-08-23T05:35:31;11.32;;;7.93;;
56893;SDS011;43392;50.078;13.704;2022-08-23T05:37:59;11.45;;;7.43;;
56893;SDS011;43392;50.078;13.704;2022-08-23T05:40:26;11.90;;;7.30;;
56893;SDS011;43392;50.078;13.704;2022-08-23T05:42:53;11.75;;;7.97;;
56893;SDS011;43392;50.078;13.704;2022-08-23T05:45:20;11.07;;;7.22;;
56893;SDS011;43392;50.078;13.704;2022-08-23T05:47:46;12.18;;;7.45;;
56893;SDS011;43392;50.078;13.704;2022-08-23T05:50:13;11.90;;;7.53;;
56893;SDS011;43392;50.078;13.704;2022-08-23T05:52:40;11.15;;;7.57;;
56893;SDS011;43392;50.078;13.704;2022-08-23T05:55:08;13.07;;;8.40;;
56893;SDS011;43392;50.078;13.704;2022-08-23T05:57:35;12.60;;;8.13;;
56893;SDS011;43392;50.078;13.704;2022-08-23T06:00:03;11.82;;;7.10;;
56893;SDS011;43392;50.078;13.704;2022-08-23T06:02:31;11.48;;;7.95;;
56893;SDS011;43392;50.078;13.704;2022-08-23T06:04:57;12.30;;;8.20;;
56893;SDS011;43392;50.078;13.704;2022-08-23T06:07:24;15.60;;;8.30;;
56893;SDS011;43392;50.078;13.704;2022-08-23T06:09:50;14.02;;;8.48;;
56893;SDS011;43392;50.078;13.704;2022-08-23T06:12:20;14.15;;;9.25;;
56893;SDS011;43392;50.078;13.704;2022-08-23T06:14:47;14.25;;;8.95;;
56893;SDS011;43392;50.078;13.704;2022-08-23T06:17:13;13.65;;;9.40;;
56893;SDS011;43392;50.078;13.704;2022-08-23T06:19:40;13.95;;;9.45;;
56893;SDS011;43392;50.078;13.704;2022-08-23T06:22:06;14.32;;;9.82;;
56893;SDS011;43392;50.078;13.704;2022-08-23T06:24:33;15.93;;;9.13;;
56893;SDS011;43392;50.078;13.704;2022-08-23T06:27:00;14.85;;;9.60;;
56893;SDS011;43392;50.078;13.704;2022-08-23T06:29:28;14.80;;;9.45;;
56893;SDS011;43392;50.078;13.704;2022-08-23T06:31:54;18.33;;;9.88;;
56893;SDS011;43392;50.078;13.704;2022-08-23T06:34:22;15.82;;;9.60;;
56893;SDS011;43392;50.078;13.704;2022-08-23T06:36:52;14.18;;;9.52;;
56893;SDS011;43392;50.078;13.704;2022-08-23T06:39:20;15.05;;;10.00;;
56893;SDS011;43392;50.078;13.704;2022-08-23T06:41:48;14.45;;;10.23;;
56893;SDS011;43392;50.078;13.704;2022-08-23T06:44:16;15.30;;;9.65;;
56893;SDS011;43392;50.078;13.704;2022-08-23T06:46:45;14.73;;;10.05;;
56893;SDS011;43392;50.078;13.704;2022-08-23T06:49:13;14.98;;;10.50;;
56893;SDS011;43392;50.078;13.704;2022-08-23T06:51:41;14.70;;;9.98;;
56893;SDS011;43392;50.078;13.704;2022-08-23T06:54:12;15.38;;;10.50;;
56893;SDS011;43392;50.078;13.704;2022-08-23T06:56:41;16.02;;;10.10;;
56893;SDS011;43392;50.078;13.704;2022-08-23T06:59:09;15.18;;;9.25;;
56893;SDS011;43392;50.078;13.704;2022-08-23T07:01:39;13.35;;;9.73;;
56893;SDS011;43392;50.078;13.704;2022-08-23T07:04:09;21.15;;;9.40;;
56893;SDS011;43392;50.078;13.704;2022-08-23T07:06:38;15.20;;;9.27;;
56893;SDS011;43392;50.078;13.704;2022-08-23T07:09:05;18.50;;;10.52;;
56893;SDS011;43392;50.078;13.704;2022-08-23T07:11:32;12.70;;;8.75;;
56893;SDS011;43392;50.078;13.704;2022-08-23T07:14:00;15.15;;;10.00;;
56893;SDS011;43392;50.078;13.704;2022-08-23T07:16:30;14.50;;;8.93;;
56893;SDS011;43392;50.078;13.704;2022-08-23T07:18:57;13.85;;;9.75;;
56893;SDS011;43392;50.078;13.704;2022-08-23T07:21:25;13.05;;;8.65;;
56893;SDS011;43392;50.078;13.704;2022-08-23T07:23:52;12.35;;;8.38;;
56893;SDS011;43392;50.078;13.704;2022-08-23T07:26:19;13.32;;;8.35;;
56893;SDS011;43392;50.078;13.704;2022-08-23T07:28:46;13.45;;;8.05;;
56893;SDS011;43392;50.078;13.704;2022-08-23T07:31:14;13.60;;;8.77;;
56893;SDS011;43392;50.078;13.704;2022-08-23T07:33:43;13.45;;;7.88;;
56893;SDS011;43392;50.078;13.704;2022-08-23T07:36:12;12.43;;;7.95;;
56893;SDS011;43392;50.078;13.704;2022-08-23T07:38:41;13.82;;;8.80;;
56893;SDS011;43392;50.078;13.704;2022-08-23T07:41:09;11.55;;;8.27;;
56893;SDS011;43392;50.078;13.704;2022-08-23T07:43:36;13.57;;;7.85;;
56893;SDS011;43392;50.078;13.704;2022-08-23T07:46:04;11.57;;;7.30;;
56893;SDS011;43392;50.078;13.704;2022-08-23T07:48:31;10.73;;;7.10;;
56893;SDS011;43392;50.078;13.704;2022-08-23T07:50:59;9.90;;;6.95;;
56893;SDS011;43392;50.078;13.704;2022-08-23T07:53:27;10.10;;;7.25;;
56893;SDS011;43392;50.078;13.704;2022-08-23T07:55:55;10.00;;;7.00;;
56893;SDS011;43392;50.078;13.704;2022-08-23T07:58:22;11.20;;;7.45;;
56893;SDS011;43392;50.078;13.704;2022-08-23T08:00:50;11.23;;;7.28;;
56893;SDS011;43392;50.078;13.704;2022-08-23T08:03:18;10.88;;;7.07;;
56893;SDS011;43392;50.078;13.704;2022-08-23T08:05:45;11.32;;;7.65;;
56893;SDS011;43392;50.078;13.704;2022-08-23T08:08:12;10.60;;;6.75;;
56893;SDS011;43392;50.078;13.704;2022-08-23T08:10:39;9.25;;;6.40;;
56893;SDS011;43392;50.078;13.704;2022-08-23T08:13:09;10.50;;;7.03;;
56893;SDS011;43392;50.078;13.704;2022-08-23T08:15:39;11.80;;;7.35;;
56893;SDS011;43392;50.078;13.704;2022-08-23T08:20:33;11.63;;;6.68;;
56893;SDS011;43392;50.078;13.704;2022-08-23T08:23:00;10.68;;;6.72;;
56893;SDS011;43392;50.078;13.704;2022-08-23T08:25:27;11.98;;;7.85;;
56893;SDS011;43392;50.078;13.704;2022-08-23T08:27:58;13.05;;;7.05;;
56893;SDS011;43392;50.078;13.704;2022-08-23T08:30:26;8.88;;;6.82;;
56893;SDS011;43392;50.078;13.704;2022-08-23T08:32:53;12.23;;;5.93;;
56893;SDS011;43392;50.078;13.704;2022-08-23T08:35:20;12.55;;;7.97;;
56893;SDS011;43392;50.078;13.704;2022-08-23T08:37:46;10.07;;;6.07;;
56893;SDS011;43392;50.078;13.704;2022-08-23T08:40:13;11.88;;;5.85;;
56893;SDS011;43392;50.078;13.704;2022-08-23T08:42:49;9.50;;;5.47;;
56893;SDS011;43392;50.078;13.704;2022-08-23T08:45:34;6.60;;;4.28;;
56893;SDS011;43392;50.078;13.704;2022-08-23T08:48:10;7.95;;;4.10;;
56893;SDS011;43392;50.078;13.704;2022-08-23T08:50:40;8.23;;;4.32;;
56893;SDS011;43392;50.078;13.704;2022-08-23T08:53:14;7.03;;;4.00;;
56893;SDS011;43392;50.078;13.704;2022-08-23T08:55:44;7.78;;;4.38;;
56893;SDS011;43392;50.078;13.704;2022-08-23T08:58:15;6.28;;;3.97;;
56893;SDS011;43392;50.078;13.704;2022-08-23T09:00:48;7.88;;;4.72;;
56893;SDS011;43392;50.078;13.704;2022-08-23T09:03:16;14.68;;;7.28;;
56893;SDS011;43392;50.078;13.704;2022-08-23T09:05:46;12.30;;;5.13;;
56893;SDS011;43392;50.078;13.704;2022-08-23T09:08:23;8.73;;;6.03;;
56893;SDS011;43392;50.078;13.704;2022-08-23T09:11:06;13.18;;;6.55;;
56893;SDS011;43392;50.078;13.704;2022-08-23T09:13:54;16.30;;;8.20;;
56893;SDS011;43392;50.078;13.704;2022-08-23T09:16:44;12.38;;;7.20;;
56893;SDS011;43392;50.078;13.704;2022-08-23T09:19:16;14.98;;;8.98;;
56893;SDS011;43392;50.078;13.704;2022-08-23T09:21:46;9.43;;;5.13;;
56893;SDS011;43392;50.078;13.704;2022-08-23T09:24:20;9.52;;;5.60;;
56893;SDS011;43392;50.078;13.704;2022-08-23T09:26:47;9.90;;;6.07;;
56893;SDS011;43392;50.078;13.704;2022-08-23T09:29:17;10.88;;;6.85;;
56893;SDS011;43392;50.078;13.704;2022-08-23T09:31:48;11.07;;;7.75;;
56893;SDS011;43392;50.078;13.704;2022-08-23T09:34:18;9.27;;;6.28;;
56893;SDS011;43392;50.078;13.704;2022-08-23T09:36:46;9.93;;;5.78;;
56893;SDS011;43392;50.078;13.704;2022-08-23T09:39:24;9.77;;;5.82;;
56893;SDS011;43392;50.078;13.704;2022-08-23T09:41:53;9.60;;;6.18;;
56893;SDS011;43392;50.078;13.704;2022-08-23T09:44:30;11.57;;;6.50;;
56893;SDS011;43392;50.078;13.704;2022-08-23T09:47:10;10.37;;;6.87;;
56893;SDS011;43392;50.078;13.704;2022-08-23T09:49:39;12.07;;;6.75;;
56893;SDS011;43392;50.078;13.704;2022-08-23T09:52:12;10.57;;;6.03;;
56893;SDS011;43392;50.078;13.704;2022-08-23T09:54:52;16.15;;;10.55;;
56893;SDS011;43392;50.078;13.704;2022-08-23T09:57:22;11.95;;;6.50;;
56893;SDS011;43392;50.078;13.704;2022-08-23T09:59:52;11.77;;;6.50;;
56893;SDS011;43392;50.078;13.704;2022-08-23T10:02:24;13.50;;;7.90;;
56893;SDS011;43392;50.078;13.704;2022-08-23T10:04:56;10.77;;;6.65;;
56893;SDS011;43392;50.078;13.704;2022-08-23T10:07:33;11.23;;;7.03;;
56893;SDS011;43392;50.078;13.704;2022-08-23T10:10:12;11.90;;;7.00;;
56893;SDS011;43392;50.078;13.704;2022-08-23T10:12:42;9.65;;;6.93;;
56893;SDS011;43392;50.078;13.704;2022-08-23T10:15:08;15.45;;;7.68;;
56893;SDS011;43392;50.078;13.704;2022-08-23T10:17:38;13.70;;;7.97;;
56893;SDS011;43392;50.078;13.704;2022-08-23T10:20:16;12.60;;;7.70;;
56893;SDS011;43392;50.078;13.704;2022-08-23T10:22:54;13.65;;;8.73;;
56893;SDS011;43392;50.078;13.704;2022-08-23T10:25:30;18.42;;;11.48;;
56893;SDS011;43392;50.078;13.704;2022-08-23T10:28:02;13.60;;;9.43;;
56893;SDS011;43392;50.078;13.704;2022-08-23T10:30:56;17.23;;;11.00;;
56893;SDS011;43392;50.078;13.704;2022-08-23T10:33:31;13.75;;;8.88;;
56893;SDS011;43392;50.078;13.704;2022-08-23T10:36:08;19.42;;;11.68;;
56893;SDS011;43392;50.078;13.704;2022-08-23T10:38:41;15.27;;;10.68;;
56893;SDS011;43392;50.078;13.704;2022-08-23T10:41:16;15.25;;;9.88;;
56893;SDS011;43392;50.078;13.704;2022-08-23T10:43:56;20.40;;;12.95;;
56893;SDS011;43392;50.078;13.704;2022-08-23T10:46:35;15.73;;;10.45;;
56893;SDS011;43392;50.078;13.704;2022-08-23T10:49:09;20.02;;;12.27;;
56893;SDS011;43392;50.078;13.704;2022-08-23T10:51:39;21.10;;;13.10;;
56893;SDS011;43392;50.078;13.704;2022-08-23T10:54:09;13.48;;;9.15;;
56893;SDS011;43392;50.078;13.704;2022-08-23T10:56:40;15.80;;;9.88;;
56893;SDS011;43392;50.078;13.704;2022-08-23T10:59:08;15.73;;;10.27;;
56893;SDS011;43392;50.078;13.704;2022-08-23T11:01:39;13.90;;;9.13;;
56893;SDS011;43392;50.078;13.704;2022-08-23T11:04:15;12.95;;;9.27;;
56893;SDS011;43392;50.078;13.704;2022-08-23T11:06:49;12.10;;;8.43;;
56893;SDS011;43392;50.078;13.704;2022-08-23T11:12:22;15.63;;;10.20;;
56893;SDS011;43392;50.078;13.704;2022-08-23T11:15:01;17.17;;;11.43;;
56893;SDS011;43392;50.078;13.704;2022-08-23T11:17:53;21.70;;;9.93;;
56893;SDS011;43392;50.078;13.704;2022-08-23T11:23:36;11.55;;;7.10;;
56893;SDS011;43392;50.078;13.704;2022-08-23T11:26:06;11.63;;;6.82;;
56893;SDS011;43392;50.078;13.704;2022-08-23T11:28:38;10.55;;;6.35;;
56893;SDS011;43392;50.078;13.704;2022-08-23T11:31:20;19.08;;;7.57;;
56893;SDS011;43392;50.078;13.704;2022-08-23T11:33:51;19.15;;;8.40;;
56893;SDS011;43392;50.078;13.704;2022-08-23T11:36:27;10.48;;;7.55;;
56893;SDS011;43392;50.078;13.704;2022-08-23T11:39:08;19.63;;;9.20;;
56893;SDS011;43392;50.078;13.704;2022-08-23T11:44:26;17.17;;;9.55;;
56893;SDS011;43392;50.078;13.704;2022-08-23T11:47:02;14.50;;;7.78;;
56893;SDS011;43392;50.078;13.704;2022-08-23T11:49:37;12.98;;;8.63;;
56893;SDS011;43392;50.078;13.704;2022-08-23T11:52:25;17.33;;;10.30;;
56893;SDS011;43392;50.078;13.704;2022-08-23T11:55:22;18.75;;;9.52;;
56893;SDS011;43392;50.078;13.704;2022-08-23T11:58:03;16.27;;;9.40;;
56893;SDS011;43392;50.078;13.704;2022-08-23T12:00:50;15.05;;;10.10;;
56893;SDS011;43392;50.078;13.704;2022-08-23T12:03:20;13.85;;;9.20;;
56893;SDS011;43392;50.078;13.704;2022-08-23T12:06:05;19.77;;;11.32;;
56893;SDS011;43392;50.078;13.704;2022-08-23T12:08:45;15.73;;;9.73;;
56893;SDS011;43392;50.078;13.704;2022-08-23T12:11:15;16.17;;;9.40;;
56893;SDS011;43392;50.078;13.704;2022-08-23T12:16:48;14.48;;;8.32;;
56893;SDS011;43392;50.078;13.704;2022-08-23T12:19:17;21.92;;;9.40;;
56893;SDS011;43392;50.078;13.704;2022-08-23T12:22:04;12.73;;;8.70;;
56893;SDS011;43392;50.078;13.704;2022-08-23T12:24:40;23.77;;;9.32;;
56893;SDS011;43392;50.078;13.704;2022-08-23T12:27:11;13.75;;;8.88;;
56893;SDS011;43392;50.078;13.704;2022-08-23T12:29:51;15.27;;;10.05;;
56893;SDS011;43392;50.078;13.704;2022-08-23T12:32:26;12.23;;;9.30;;
56893;SDS011;43392;50.078;13.704;2022-08-23T12:35:04;15.52;;;9.68;;
56893;SDS011;43392;50.078;13.704;2022-08-23T12:37:44;15.95;;;10.98;;
56893;SDS011;43392;50.078;13.704;2022-08-23T12:40:22;17.42;;;10.73;;
56893;SDS011;43392;50.078;13.704;2022-08-23T12:43:01;17.35;;;11.23;;
56893;SDS011;43392;50.078;13.704;2022-08-23T12:45:34;16.92;;;10.40;;
56893;SDS011;43392;50.078;13.704;2022-08-23T12:48:05;14.77;;;9.98;;
56893;SDS011;43392;50.078;13.704;2022-08-23T12:50:34;13.85;;;9.57;;
56893;SDS011;43392;50.078;13.704;2022-08-23T12:53:04;14.57;;;10.27;;
56893;SDS011;43392;50.078;13.704;2022-08-23T12:58:03;15.47;;;9.90;;
56893;SDS011;43392;50.078;13.704;2022-08-23T13:00:32;16.52;;;10.48;;
56893;SDS011;43392;50.078;13.704;2022-08-23T13:03:02;17.80;;;10.73;;
56893;SDS011;43392;50.078;13.704;2022-08-23T13:05:34;16.98;;;10.80;;
56893;SDS011;43392;50.078;13.704;2022-08-23T13:08:04;17.30;;;9.98;;
56893;SDS011;43392;50.078;13.704;2022-08-23T13:13:03;15.13;;;10.23;;
56893;SDS011;43392;50.078;13.704;2022-08-23T13:15:43;13.13;;;10.13;;
56893;SDS011;43392;50.078;13.704;2022-08-23T13:23:54;17.27;;;10.45;;
56893;SDS011;43392;50.078;13.704;2022-08-23T13:29:08;17.75;;;11.48;;
56893;SDS011;43392;50.078;13.704;2022-08-23T13:31:50;15.70;;;11.07;;
56893;SDS011;43392;50.078;13.704;2022-08-23T13:34:33;16.27;;;11.95;;
56893;SDS011;43392;50.078;13.704;2022-08-23T13:37:17;19.08;;;11.77;;
56893;SDS011;43392;50.078;13.704;2022-08-23T13:39:47;18.20;;;12.73;;
56893;SDS011;43392;50.078;13.704;2022-08-23T13:42:30;19.27;;;12.52;;
56893;SDS011;43392;50.078;13.704;2022-08-23T13:45:07;24.02;;;13.27;;
56893;SDS011;43392;50.078;13.704;2022-08-23T13:47:37;18.58;;;11.82;;
56893;SDS011;43392;50.078;13.704;2022-08-23T13:50:13;17.15;;;11.82;;
56893;SDS011;43392;50.078;13.704;2022-08-23T13:52:41;17.30;;;11.05;;
56893;SDS011;43392;50.078;13.704;2022-08-23T13:55:09;19.83;;;11.70;;
56893;SDS011;43392;50.078;13.704;2022-08-23T13:57:37;15.75;;;11.10;;
56893;SDS011;43392;50.078;13.704;2022-08-23T14:00:06;17.13;;;12.57;;
56893;SDS011;43392;50.078;13.704;2022-08-23T14:02:34;17.75;;;12.80;;
56893;SDS011;43392;50.078;13.704;2022-08-23T14:05:02;19.65;;;12.50;;
56893;SDS011;43392;50.078;13.704;2022-08-23T14:07:29;17.75;;;11.82;;
56893;SDS011;43392;50.078;13.704;2022-08-23T14:09:56;17.70;;;12.63;;
56893;SDS011;43392;50.078;13.704;2022-08-23T14:12:24;17.73;;;12.07;;
56893;SDS011;43392;50.078;13.704;2022-08-23T14:14:55;14.68;;;10.18;;
56893;SDS011;43392;50.078;13.704;2022-08-23T14:17:22;13.65;;;9.85;;
56893;SDS011;43392;50.078;13.704;2022-08-23T14:19:49;12.80;;;9.88;;
56893;SDS011;43392;50.078;13.704;2022-08-23T14:22:16;14.68;;;9.43;;
56893;SDS011;43392;50.078;13.704;2022-08-23T14:24:43;15.85;;;10.35;;
56893;SDS011;43392;50.078;13.704;2022-08-23T14:27:10;16.05;;;9.52;;
56893;SDS011;43392;50.078;13.704;2022-08-23T14:29:37;14.00;;;8.88;;
56893;SDS011;43392;50.078;13.704;2022-08-23T14:32:05;14.98;;;9.32;;
56893;SDS011;43392;50.078;13.704;2022-08-23T14:34:31;15.88;;;9.35;;
56893;SDS011;43392;50.078;13.704;2022-08-23T14:36:58;13.32;;;9.20;;
56893;SDS011;43392;50.078;13.704;2022-08-23T14:39:25;12.70;;;9.00;;
56893;SDS011;43392;50.078;13.704;2022-08-23T14:41:51;10.48;;;6.80;;
56893;SDS011;43392;50.078;13.704;2022-08-23T14:44:18;11.00;;;8.50;;
56893;SDS011;43392;50.078;13.704;2022-08-23T14:46:45;13.93;;;8.25;;
56893;SDS011;43392;50.078;13.704;2022-08-23T14:49:13;11.70;;;7.30;;
56893;SDS011;43392;50.078;13.704;2022-08-23T14:51:40;12.88;;;7.30;;
56893;SDS011;43392;50.078;13.704;2022-08-23T14:56:38;10.73;;;7.45;;
56893;SDS011;43392;50.078;13.704;2022-08-23T14:59:05;10.82;;;6.60;;
56893;SDS011;43392;50.078;13.704;2022-08-23T15:01:31;12.23;;;7.35;;
56893;SDS011;43392;50.078;13.704;2022-08-23T15:03:58;9.15;;;5.95;;
56893;SDS011;43392;50.078;13.704;2022-08-23T15:06:26;12.10;;;5.97;;
56893;SDS011;43392;50.078;13.704;2022-08-23T15:08:53;10.85;;;6.00;;
56893;SDS011;43392;50.078;13.704;2022-08-23T15:11:20;9.60;;;5.25;;